createdAt,value
2018-08-04T00:01:49.851Z,24.70
2018-08-04T00:04:17.680Z,24.60
2018-08-04T00:06:45.505Z,24.50
2018-08-04T00:11:41.768Z,24.30
2018-08-04T00:14:09.816Z,24.30
2018-08-04T00:16:37.764Z,24.20
2018-08-04T00:19:06.282Z,24.20
2018-08-04T00:21:34.256Z,24.10
2018-08-04T00:26:31.257Z,23.90
2018-08-04T00:29:00.268Z,23.90
2018-08-04T00:31:29.575Z,23.80
2018-08-04T00:33:57.464Z,23.80
2018-08-04T00:36:25.646Z,23.70
2018-08-04T00:38:53.987Z,23.60
2018-08-04T00:43:50.211Z,23.50
2018-08-04T00:46:18.220Z,23.40
2018-08-04T00:48:46.321Z,23.40
2018-08-04T00:51:14.229Z,23.30
2018-08-04T00:53:42.241Z,23.30
2018-08-04T00:56:10.455Z,23.20
2018-08-04T00:58:38.574Z,23.20
2018-08-04T01:01:06.963Z,23.10
2018-08-04T01:03:35.108Z,23.10
2018-08-04T01:06:02.988Z,23.00
2018-08-04T01:08:30.787Z,23.00
2018-08-04T01:10:58.700Z,23.00
2018-08-04T01:13:26.464Z,22.90
2018-08-04T01:15:54.267Z,22.90
2018-08-04T01:18:22.120Z,22.90
2018-08-04T01:20:49.895Z,22.80
2018-08-04T01:23:17.854Z,22.80
2018-08-04T01:25:45.821Z,22.80
2018-08-04T01:28:13.622Z,22.90
2018-08-04T01:30:41.455Z,22.90
2018-08-04T01:33:09.243Z,22.80
2018-08-04T01:35:37.960Z,22.80
2018-08-04T01:38:05.752Z,23.00
2018-08-04T01:40:33.540Z,22.90
2018-08-04T01:43:01.352Z,22.90
2018-08-04T01:45:29.143Z,22.90
2018-08-04T01:47:57.016Z,22.80
2018-08-04T01:50:24.891Z,22.90
2018-08-04T01:52:52.791Z,23.00
2018-08-04T01:55:20.596Z,23.00
2018-08-04T01:57:48.350Z,23.00
2018-08-04T02:00:16.195Z,23.00
2018-08-04T02:02:44.008Z,22.90
2018-08-04T02:05:11.748Z,22.80
2018-08-04T02:07:39.523Z,22.80
2018-08-04T02:10:07.335Z,22.80
2018-08-04T02:12:35.200Z,22.80
2018-08-04T02:15:03.039Z,22.70
2018-08-04T02:22:26.399Z,22.60
2018-08-04T02:24:54.160Z,22.60
2018-08-04T02:27:22.072Z,22.60
2018-08-04T02:29:50.181Z,22.60
2018-08-04T02:32:17.943Z,22.50
2018-08-04T02:37:13.555Z,22.50
2018-08-04T02:39:41.429Z,22.50
2018-08-04T02:42:09.279Z,22.40
2018-08-04T02:44:37.123Z,22.40
2018-08-04T02:47:04.963Z,22.40
2018-08-04T02:49:32.764Z,22.30
2018-08-04T02:52:00.578Z,22.50
2018-08-04T02:54:28.360Z,22.40
2018-08-04T02:59:23.984Z,22.20
2018-08-04T03:01:51.804Z,22.20
2018-08-04T03:04:19.656Z,22.10
2018-08-04T03:06:47.499Z,22.10
2018-08-04T03:09:15.326Z,22.00
2018-08-04T03:11:43.168Z,22.00
2018-08-04T03:16:38.847Z,21.90
2018-08-04T03:19:06.802Z,21.90
2018-08-04T03:21:34.648Z,21.80
2018-08-04T03:24:02.469Z,21.80
2018-08-04T03:26:30.219Z,21.80
2018-08-04T03:28:58.100Z,22.00
2018-08-04T03:31:25.892Z,22.10
2018-08-04T03:33:53.659Z,22.20
2018-08-04T03:36:21.432Z,22.10
2018-08-04T03:38:49.215Z,22.10
2018-08-04T03:41:17.110Z,22.00
2018-08-04T03:43:44.937Z,21.90
2018-08-04T03:46:12.836Z,21.90
2018-08-04T03:48:40.584Z,21.90
2018-08-04T03:51:08.396Z,22.00
2018-08-04T03:53:36.256Z,21.80
2018-08-04T03:56:04.126Z,21.80
2018-08-04T03:58:31.935Z,21.70
2018-08-04T04:00:59.877Z,21.70
2018-08-04T04:03:27.739Z,21.70
2018-08-04T04:05:55.493Z,21.70
2018-08-04T04:08:23.316Z,21.60
2018-08-04T04:10:51.155Z,21.60
2018-08-04T04:13:18.986Z,21.60
2018-08-04T04:15:46.776Z,21.60
2018-08-04T04:18:14.635Z,21.60
2018-08-04T04:20:42.419Z,21.60
2018-08-04T04:23:10.184Z,21.60
2018-08-04T04:25:37.971Z,21.70
2018-08-04T04:28:05.799Z,21.70
2018-08-04T04:30:33.627Z,21.80
2018-08-04T04:33:01.389Z,21.80
2018-08-04T04:35:29.212Z,21.90
2018-08-04T04:37:57.012Z,22.00
2018-08-04T04:40:24.841Z,22.10
2018-08-04T04:42:52.639Z,22.10
2018-08-04T04:45:20.486Z,22.10
2018-08-04T04:47:48.310Z,22.20
2018-08-04T04:50:16.229Z,22.20
2018-08-04T04:52:44.107Z,22.30
2018-08-04T04:55:11.965Z,22.30
2018-08-04T04:57:39.758Z,22.40
2018-08-04T05:00:07.639Z,22.50
2018-08-04T05:02:35.360Z,22.60
2018-08-04T05:05:03.577Z,22.70
2018-08-04T05:07:31.404Z,22.80
2018-08-04T05:09:59.170Z,22.90
2018-08-04T05:12:27.092Z,23.00
2018-08-04T05:14:54.895Z,23.00
2018-08-04T05:17:22.675Z,23.00
2018-08-04T05:19:50.455Z,23.10
2018-08-04T05:22:18.230Z,23.10
2018-08-04T05:24:46.025Z,23.20
2018-08-04T05:27:13.929Z,23.20
2018-08-04T05:29:41.754Z,23.40
2018-08-04T05:32:09.574Z,23.40
2018-08-04T05:34:37.435Z,23.50
2018-08-04T05:37:05.759Z,23.70
2018-08-04T05:39:33.587Z,23.80
2018-08-04T05:42:01.312Z,24.00
2018-08-04T05:46:57.496Z,24.80
2018-08-04T05:49:25.377Z,25.40
2018-08-04T05:51:53.211Z,26.10
2018-08-04T05:54:21.064Z,26.60
2018-08-04T05:56:48.812Z,26.60
2018-08-04T05:59:16.632Z,26.70
2018-08-04T06:01:44.485Z,26.70
2018-08-04T06:04:12.283Z,26.80
2018-08-04T06:06:40.073Z,27.00
2018-08-04T06:09:09.201Z,27.20
2018-08-04T06:11:37.078Z,27.20
2018-08-04T06:14:05.048Z,27.30
2018-08-04T06:16:32.976Z,27.40
2018-08-04T06:19:01.476Z,27.20
2018-08-04T06:21:29.467Z,27.20
2018-08-04T06:23:57.351Z,27.50
2018-08-04T06:26:25.147Z,27.60
2018-08-04T06:28:53.055Z,27.40
2018-08-04T06:31:20.896Z,27.50
2018-08-04T06:33:48.751Z,27.30
2018-08-04T06:36:16.485Z,27.40
2018-08-04T06:38:44.319Z,27.20
2018-08-04T06:41:12.111Z,27.10
2018-08-04T06:43:39.993Z,27.30
2018-08-04T06:46:07.851Z,27.40
2018-08-04T06:48:35.911Z,27.40
2018-08-04T06:51:03.755Z,26.90
2018-08-04T06:53:31.623Z,26.90
2018-08-04T06:55:59.533Z,26.90
2018-08-04T06:58:27.427Z,27.40
2018-08-04T07:00:55.241Z,27.50
2018-08-04T07:03:23.052Z,27.70
2018-08-04T07:05:50.818Z,27.50
2018-08-04T07:08:18.647Z,27.40
2018-08-04T07:10:46.407Z,27.60
2018-08-04T07:13:14.259Z,27.80
2018-08-04T07:15:42.106Z,27.70
2018-08-04T07:18:10.065Z,27.70
2018-08-04T07:20:37.947Z,27.50
2018-08-04T07:25:33.553Z,27.70
2018-08-04T07:28:01.337Z,28.10
2018-08-04T07:30:29.183Z,28.10
2018-08-04T07:33:02.263Z,28.30
2018-08-04T07:35:30.983Z,28.30
2018-08-04T07:37:58.751Z,28.50
2018-08-04T07:40:26.631Z,28.70
2018-08-04T07:42:54.449Z,28.70
2018-08-04T07:45:22.249Z,28.90
2018-08-04T07:47:50.169Z,28.90
2018-08-04T07:50:18.518Z,29.00
2018-08-04T07:52:46.300Z,29.00
2018-08-04T07:57:41.867Z,29.30
2018-08-04T08:00:09.919Z,29.60
2018-08-04T08:02:37.777Z,29.70
2018-08-04T08:05:05.962Z,29.50
2018-08-04T08:07:33.833Z,29.60
2018-08-04T08:10:01.681Z,29.70
2018-08-04T08:12:30.085Z,29.80
2018-08-04T08:14:58.359Z,30.00
2018-08-04T08:17:26.140Z,30.20
2018-08-04T08:19:54.077Z,30.40
2018-08-04T08:22:35.720Z,30.40
2018-08-04T08:25:04.051Z,30.50
2018-08-04T08:27:32.040Z,30.40
2018-08-04T08:29:59.919Z,30.40
2018-08-04T08:32:27.742Z,30.30
2018-08-04T08:34:55.587Z,30.40
2018-08-04T08:42:18.945Z,31.10
2018-08-04T08:44:46.782Z,31.50
2018-08-04T08:47:14.838Z,32.00
2018-08-04T08:49:42.590Z,32.60
2018-08-04T08:52:10.435Z,33.10
2018-08-04T08:54:38.345Z,33.40
2018-08-04T08:57:06.140Z,33.70
2018-08-04T08:59:34.049Z,33.80
2018-08-04T09:02:01.857Z,33.60
2018-08-04T09:06:57.488Z,33.80
2018-08-04T09:09:25.255Z,33.70
2018-08-04T09:11:53.080Z,33.60
2018-08-04T09:14:20.885Z,33.70
2018-08-04T09:16:48.784Z,33.70
2018-08-04T09:21:44.491Z,33.20
2018-08-04T09:24:12.340Z,33.40
2018-08-04T09:26:40.383Z,33.50
2018-08-04T09:31:36.328Z,34.40
2018-08-04T09:34:04.176Z,34.50
2018-08-04T09:39:00.469Z,34.50
2018-08-04T09:41:28.244Z,34.70
2018-08-04T09:46:23.940Z,34.40
2018-08-04T09:48:51.846Z,34.30
2018-08-04T09:51:19.647Z,34.60
2018-08-04T09:53:47.492Z,35.10
2018-08-04T09:56:15.323Z,35.20
2018-08-04T09:58:43.080Z,35.30
2018-08-04T10:01:16.967Z,35.00
2018-08-04T10:03:44.933Z,35.30
2018-08-04T10:06:12.808Z,35.80
2018-08-04T10:08:40.623Z,36.30
2018-08-04T10:11:08.553Z,36.50
2018-08-04T10:13:36.428Z,36.70
2018-08-04T10:16:04.995Z,36.70
2018-08-04T10:18:32.855Z,36.90
2018-08-04T10:23:28.468Z,37.40
2018-08-04T10:25:56.281Z,37.30
2018-08-04T10:28:23.991Z,37.10
2018-08-04T10:30:51.759Z,37.30
2018-08-04T10:33:19.536Z,37.60
2018-08-04T10:35:47.409Z,37.40
2018-08-04T10:38:15.200Z,37.40
2018-08-04T10:40:43.011Z,37.60
2018-08-04T10:43:10.801Z,37.90
2018-08-04T10:45:38.623Z,38.00
2018-08-04T10:48:06.423Z,38.20
2018-08-04T10:50:34.248Z,38.60
2018-08-04T10:53:02.060Z,38.50
2018-08-04T10:55:29.895Z,38.00
2018-08-04T10:57:57.803Z,38.90
2018-08-04T11:00:25.580Z,39.10
2018-08-04T11:02:53.375Z,39.30
2018-08-04T11:05:21.186Z,39.50
2018-08-04T11:10:16.751Z,39.50
2018-08-04T11:12:44.563Z,39.30
2018-08-04T11:15:12.356Z,39.30
2018-08-04T11:17:40.229Z,38.80
2018-08-04T11:20:08.083Z,38.40
2018-08-04T11:22:35.914Z,38.40
2018-08-04T11:25:04.035Z,38.50
2018-08-04T11:27:31.888Z,39.50
2018-08-04T11:29:59.702Z,40.00
2018-08-04T11:32:27.558Z,40.50
2018-08-04T11:34:55.379Z,41.20
2018-08-04T11:37:23.190Z,41.20
2018-08-04T11:39:51.043Z,41.80
2018-08-04T11:42:18.820Z,41.60
2018-08-04T11:44:46.603Z,41.80
2018-08-04T11:47:14.439Z,42.30
2018-08-04T11:49:42.259Z,41.40
2018-08-04T11:52:10.128Z,41.00
2018-08-04T11:54:37.859Z,40.90
2018-08-04T11:57:05.759Z,40.20
2018-08-04T11:59:33.638Z,40.30
2018-08-04T12:02:01.558Z,39.80
2018-08-04T12:04:29.336Z,38.80
2018-08-04T12:06:57.179Z,38.90
2018-08-04T12:11:52.725Z,38.80
2018-08-04T12:14:20.541Z,38.70
2018-08-04T12:16:48.419Z,39.00
2018-08-04T12:19:16.198Z,38.40
2018-08-04T12:21:43.987Z,38.30
2018-08-04T12:24:11.839Z,38.40
2018-08-04T12:26:39.615Z,38.20
2018-08-04T12:29:07.396Z,38.40
2018-08-04T12:34:02.931Z,37.60
2018-08-04T12:36:30.771Z,38.00
2018-08-04T12:38:58.603Z,38.00
2018-08-04T12:41:26.507Z,37.50
2018-08-04T12:43:54.319Z,37.30
2018-08-04T12:46:22.171Z,37.40
2018-08-04T12:48:49.950Z,37.30
2018-08-04T12:51:17.719Z,37.50
2018-08-04T12:53:45.531Z,37.40
2018-08-04T12:56:13.347Z,38.30
2018-08-04T12:58:41.195Z,39.10
2018-08-04T13:01:09.047Z,39.50
2018-08-04T13:03:36.914Z,40.00
2018-08-04T13:06:04.915Z,40.30
2018-08-04T13:08:32.715Z,40.70
2018-08-04T13:11:00.451Z,40.60
2018-08-04T13:13:28.236Z,41.00
2018-08-04T13:15:56.131Z,40.90
2018-08-04T13:18:23.974Z,41.00
2018-08-04T13:20:52.027Z,41.30
2018-08-04T13:23:19.770Z,41.80
2018-08-04T13:28:15.411Z,40.20
2018-08-04T13:30:43.267Z,40.70
2018-08-04T13:35:38.807Z,40.10
2018-08-04T13:38:06.665Z,40.60
2018-08-04T13:40:34.519Z,39.90
2018-08-04T13:43:02.407Z,39.20
2018-08-04T13:45:30.231Z,37.70
2018-08-04T13:47:58.057Z,36.30
2018-08-04T13:50:25.900Z,35.50
2018-08-04T13:52:53.739Z,34.30
2018-08-04T13:55:22.121Z,33.70
2018-08-04T13:57:49.967Z,33.10
2018-08-04T14:02:45.544Z,31.10
2018-08-04T14:05:13.392Z,30.70
2018-08-04T14:07:41.156Z,30.40
2018-08-04T14:12:49.033Z,30.70
2018-08-04T14:15:24.487Z,30.60
2018-08-04T14:17:52.385Z,30.60
2018-08-04T14:20:26.369Z,30.70
2018-08-04T14:22:54.236Z,30.20
2018-08-04T14:25:22.088Z,29.80
2018-08-04T14:27:51.746Z,29.70
2018-08-04T14:30:20.256Z,29.70
2018-08-04T14:32:53.026Z,29.70
2018-08-04T14:37:56.848Z,29.80
2018-08-04T14:40:24.599Z,29.90
2018-08-04T14:42:52.396Z,30.20
2018-08-04T14:45:20.476Z,30.10
2018-08-04T14:47:48.778Z,30.20
2018-08-04T14:50:16.683Z,30.30
2018-08-04T14:52:44.462Z,30.60
2018-08-04T14:55:12.387Z,30.70
2018-08-04T14:57:40.154Z,30.80
2018-08-04T15:00:08.099Z,31.00
2018-08-04T15:05:05.487Z,31.40
2018-08-04T15:07:33.268Z,31.60
2018-08-04T15:10:01.070Z,31.80
2018-08-04T15:12:28.936Z,32.00
2018-08-04T15:14:56.687Z,32.20
2018-08-04T15:17:25.271Z,32.40
2018-08-04T15:19:53.079Z,32.50
2018-08-04T15:22:20.996Z,32.60
2018-08-04T15:24:48.948Z,32.80
2018-08-04T15:27:19.951Z,32.90
2018-08-04T15:29:47.747Z,33.00
2018-08-04T15:32:15.756Z,33.10
2018-08-04T15:34:43.591Z,33.00
2018-08-04T15:37:11.315Z,32.90
2018-08-04T15:39:39.166Z,32.80
2018-08-04T15:42:07.100Z,32.80
2018-08-04T15:44:35.187Z,32.80
2018-08-04T15:47:03.474Z,32.80
2018-08-04T15:49:31.328Z,33.10
2018-08-04T15:51:59.291Z,33.10
2018-08-04T15:54:27.104Z,33.30
2018-08-04T15:56:54.915Z,33.40
2018-08-04T15:59:23.152Z,33.60
2018-08-04T16:01:51.011Z,33.70
2018-08-04T16:04:18.840Z,33.70
2018-08-04T16:06:46.599Z,33.70
2018-08-04T16:09:14.380Z,33.70
2018-08-04T16:11:42.216Z,33.80
2018-08-04T16:14:10.347Z,33.90
2018-08-04T16:16:39.020Z,33.90
2018-08-04T16:19:07.287Z,33.90
2018-08-04T16:21:35.135Z,33.90
2018-08-04T16:24:03.000Z,34.00
2018-08-04T16:29:01.324Z,33.90
2018-08-04T16:31:29.141Z,33.90
2018-08-04T16:33:57.235Z,34.00
2018-08-04T16:36:28.617Z,34.00
2018-08-04T16:38:56.417Z,34.20
2018-08-04T16:41:24.277Z,34.10
2018-08-04T16:43:52.052Z,34.10
2018-08-04T16:46:19.911Z,34.20
2018-08-04T16:48:47.715Z,34.00
2018-08-04T16:51:15.486Z,34.00
2018-08-04T16:53:43.245Z,34.00
2018-08-04T16:56:11.103Z,34.00
2018-08-04T16:58:39.015Z,33.90
2018-08-04T17:01:06.898Z,33.70
2018-08-04T17:03:34.667Z,33.50
2018-08-04T17:06:02.531Z,33.40
2018-08-04T17:08:30.292Z,33.30
2018-08-04T17:10:58.115Z,33.30
2018-08-04T17:13:25.923Z,33.20
2018-08-04T17:15:53.780Z,33.00
2018-08-04T17:18:21.593Z,32.80
2018-08-04T17:20:49.399Z,32.80
2018-08-04T17:23:17.175Z,32.60
2018-08-04T17:25:45.006Z,32.60
2018-08-04T17:30:40.664Z,32.50
2018-08-04T17:33:08.511Z,32.50
2018-08-04T17:35:36.300Z,32.50
2018-08-04T17:38:05.148Z,32.50
2018-08-04T17:40:32.943Z,32.40
2018-08-04T17:43:00.966Z,32.40
2018-08-04T17:45:28.775Z,32.40
2018-08-04T17:47:56.543Z,32.40
2018-08-04T17:50:24.389Z,32.40
2018-08-04T17:52:52.175Z,32.30
2018-08-04T17:55:19.940Z,32.30
2018-08-04T17:57:47.783Z,32.20
2018-08-04T18:00:15.655Z,32.10
2018-08-04T18:02:43.493Z,32.00
2018-08-04T18:05:11.303Z,32.00
2018-08-04T18:07:39.274Z,32.00
2018-08-04T18:10:07.223Z,31.80
2018-08-04T18:12:34.977Z,31.70
2018-08-04T18:15:03.610Z,31.60
2018-08-04T18:17:31.399Z,31.60
2018-08-04T18:19:59.223Z,31.40
2018-08-04T18:22:27.160Z,31.40
2018-08-04T18:24:54.980Z,31.40
2018-08-04T18:27:22.768Z,31.30
2018-08-04T18:29:50.744Z,31.20
2018-08-04T18:32:18.423Z,31.10
2018-08-04T18:34:46.211Z,31.10
2018-08-04T18:37:14.037Z,31.00
2018-08-04T18:39:41.879Z,31.00
2018-08-04T18:42:09.730Z,30.90
2018-08-04T18:44:37.666Z,30.80
2018-08-04T18:47:05.416Z,30.80
2018-08-04T18:49:33.244Z,30.80
2018-08-04T18:52:01.161Z,30.70
2018-08-04T18:54:29.317Z,30.60
2018-08-04T18:56:57.164Z,30.60
2018-08-04T18:59:24.947Z,30.40
2018-08-04T19:01:52.800Z,30.40
2018-08-04T19:04:21.511Z,30.40
2018-08-04T19:06:49.311Z,30.20
2018-08-04T19:09:17.160Z,30.10
2018-08-04T19:11:44.935Z,30.00
2018-08-04T19:16:40.645Z,29.90
2018-08-04T19:19:08.399Z,29.80
2018-08-04T19:21:36.198Z,29.70
2018-08-04T19:24:04.040Z,29.70
2018-08-04T19:26:34.117Z,29.60
2018-08-04T19:29:01.933Z,29.40
2018-08-04T19:31:29.878Z,29.40
2018-08-04T19:33:57.788Z,29.30
2018-08-04T19:36:25.740Z,29.30
2018-08-04T19:38:55.118Z,29.10
2018-08-04T19:41:24.232Z,29.10
2018-08-04T19:43:52.625Z,29.00
2018-08-04T19:46:20.501Z,28.80
2018-08-04T19:48:49.367Z,28.80
2018-08-04T19:51:17.256Z,28.70
2018-08-04T19:53:46.771Z,28.70
2018-08-04T19:56:14.587Z,28.60
2018-08-04T19:58:43.199Z,28.50
2018-08-04T20:03:40.280Z,28.40
2018-08-04T20:06:09.033Z,28.30
2018-08-04T20:08:37.565Z,28.20
2018-08-04T20:11:05.363Z,28.20
2018-08-04T20:13:33.173Z,28.10
2018-08-04T20:16:00.990Z,28.10
2018-08-04T20:18:29.004Z,28.00
2018-08-04T20:20:56.923Z,28.00
2018-08-04T20:23:24.811Z,27.90
2018-08-04T20:25:52.892Z,27.90
2018-08-04T20:28:20.935Z,27.90
2018-08-04T20:33:17.046Z,27.80
2018-08-04T20:35:45.300Z,27.70
2018-08-04T20:38:13.123Z,27.70
2018-08-04T20:40:40.920Z,27.60
2018-08-04T20:43:08.716Z,27.60
2018-08-04T20:45:36.498Z,27.50
2018-08-04T20:48:05.770Z,27.50
2018-08-04T20:50:33.583Z,27.40
2018-08-04T20:53:01.629Z,27.30
2018-08-04T20:55:29.603Z,27.30
2018-08-04T20:57:57.442Z,27.20
2018-08-04T21:00:25.267Z,27.10
2018-08-04T21:02:53.111Z,27.10
2018-08-04T21:05:21.163Z,27.00
2018-08-04T21:07:49.156Z,27.10
2018-08-04T21:10:17.008Z,26.90
2018-08-04T21:12:44.854Z,27.00
2018-08-04T21:15:12.687Z,26.90
2018-08-04T21:17:40.468Z,26.80
2018-08-04T21:20:08.295Z,26.70
2018-08-04T21:25:05.164Z,26.60
2018-08-04T21:27:32.972Z,26.60
2018-08-04T21:30:00.915Z,26.30
2018-08-04T21:32:28.714Z,26.30
2018-08-04T21:34:56.692Z,26.20
2018-08-04T21:37:24.500Z,26.20
2018-08-04T21:39:52.343Z,26.00
2018-08-04T21:42:20.141Z,25.90
2018-08-04T21:44:47.984Z,25.80
2018-08-04T21:47:17.117Z,25.80
2018-08-04T21:49:44.940Z,25.70
2018-08-04T21:52:12.795Z,25.60
2018-08-04T21:54:40.635Z,25.50
2018-08-04T21:57:08.453Z,25.50
2018-08-04T21:59:36.311Z,25.30
2018-08-04T22:02:04.210Z,25.30
2018-08-04T22:04:32.054Z,25.20
2018-08-04T22:08:15.111Z,25.10
2018-08-04T22:10:42.952Z,25.10
2018-08-04T22:13:10.812Z,25.20
2018-08-04T22:15:38.696Z,25.00
2018-08-04T22:18:06.588Z,24.80
2018-08-04T22:20:34.347Z,24.90
2018-08-04T22:23:02.146Z,24.90
2018-08-04T22:25:30.339Z,24.80
2018-08-04T22:27:58.590Z,24.80
2018-08-04T22:30:26.607Z,24.80
2018-08-04T22:32:54.416Z,24.70
2018-08-04T22:35:22.748Z,24.70
2018-08-04T22:37:51.152Z,24.70
2018-08-04T22:40:19.902Z,24.60
2018-08-04T22:42:47.794Z,24.50
2018-08-04T22:48:34.583Z,24.30
2018-08-04T22:51:02.541Z,24.30
2018-08-04T22:53:30.636Z,24.20
2018-08-04T22:55:58.439Z,24.10
2018-08-04T22:58:26.238Z,24.10
2018-08-04T23:00:54.055Z,24.10
2018-08-04T23:03:21.835Z,24.10
2018-08-04T23:05:49.589Z,24.00
2018-08-04T23:08:17.388Z,23.90
2018-08-04T23:10:45.244Z,24.20
2018-08-04T23:13:13.621Z,24.00
2018-08-04T23:15:41.500Z,23.90
2018-08-04T23:18:09.680Z,23.80
2018-08-04T23:20:37.634Z,23.70
2018-08-04T23:23:06.263Z,23.80
2018-08-04T23:25:34.120Z,23.70
2018-08-04T23:28:01.888Z,23.60
2018-08-04T23:30:29.673Z,23.50
2018-08-04T23:32:57.480Z,23.50
2018-08-04T23:35:26.083Z,23.50
2018-08-04T23:37:54.012Z,23.40
2018-08-04T23:40:22.266Z,23.50
2018-08-04T23:42:50.027Z,23.50
2018-08-04T23:45:17.900Z,23.40
2018-08-04T23:50:13.622Z,23.40
2018-08-04T23:52:41.552Z,23.30
2018-08-04T23:55:09.336Z,23.40
2018-08-04T23:57:37.191Z,23.40
